Time;durP1;ratioP1;P1;durP2;ratioP2;P2;SDS_P1;SDS_P2;PMS_P1;PMS_P2;Temp;Humidity;BMP_temperature;BMP_pressure;BME280_temperature;BME280_humidity;BME280_pressure;Samples;Min_cycle;Max_cycle;Signal;HPM_P1;HPM_P2
2022/10/19 00:01:05;;;;;;;4.28;1.55;;;;;;;;;;5046850;28;20049;-68
2022/10/19 00:03:31;;;;;;;2.15;1.50;;;;;;;;;;5039984;28;20043;-68
2022/10/19 00:05:57;;;;;;;2.05;1.27;;;;;;;;;;5045129;28;20032;-68
2022/10/19 00:08:23;;;;;;;6.10;1.50;;;;;;;;;;5039892;28;20049;-68
2022/10/19 00:10:49;;;;;;;5.00;1.75;;;;;;;;;;5045172;28;20093;-67
2022/10/19 00:13:15;;;;;;;7.80;1.73;;;;;;;;;;5050319;28;20522;-68
2022/10/19 00:15:41;;;;;;;5.03;1.65;;;;;;;;;;5048243;28;20037;-68
2022/10/19 00:18:08;;;;;;;9.68;1.95;;;;;;;;;;5052289;28;20514;-67
2022/10/19 00:20:35;;;;;;;6.10;2.22;;;;;;;;;;5054775;28;20041;-67
2022/10/19 00:23:01;;;;;;;3.70;1.38;;;;;;;;;;5052341;28;20521;-68
2022/10/19 00:25:27;;;;;;;3.72;1.75;;;;;;;;;;5053811;28;20057;-67
2022/10/19 00:27:53;;;;;;;3.80;1.38;;;;;;;;;;5048265;28;20033;-67
2022/10/19 00:30:19;;;;;;;6.35;1.70;;;;;;;;;;5047222;28;20082;-67
2022/10/19 00:32:45;;;;;;;5.28;1.92;;;;;;;;;;5051573;28;20540;-67
2022/10/19 00:35:11;;;;;;;2.72;1.30;;;;;;;;;;5049050;28;20045;-67
2022/10/19 00:37:37;;;;;;;2.70;1.25;;;;;;;;;;5052458;28;20091;-67
2022/10/19 00:40:03;;;;;;;6.80;1.90;;;;;;;;;;5041805;28;20052;-68
2022/10/19 00:42:29;;;;;;;3.75;1.55;;;;;;;;;;5046087;28;20039;-67
2022/10/19 00:45:00;;;;;;;4.13;1.52;;;;;;;;;;5048040;28;20064;-68
2022/10/19 00:47:26;;;;;;;2.80;1.52;;;;;;;;;;5050855;28;20565;-67
2022/10/19 00:49:53;;;;;;;5.68;1.95;;;;;;;;;;5049390;28;20036;-68
2022/10/19 00:52:20;;;;;;;4.20;1.70;;;;;;;;;;5049255;28;20037;-68
2022/10/19 00:54:47;;;;;;;4.35;2.05;;;;;;;;;;5045825;28;20047;-68
2022/10/19 00:57:14;;;;;;;4.75;1.80;;;;;;;;;;5047823;28;20037;-68
2022/10/19 00:59:41;;;;;;;6.60;1.90;;;;;;;;;;5048978;28;20079;-67
2022/10/19 01:02:07;;;;;;;4.28;1.85;;;;;;;;;;5054029;28;20490;-67
2022/10/19 01:04:34;;;;;;;6.93;2.13;;;;;;;;;;5054386;28;20045;-68
2022/10/19 01:07:01;;;;;;;7.10;1.83;;;;;;;;;;5051952;28;20042;-67
2022/10/19 01:09:27;;;;;;;3.45;1.65;;;;;;;;;;5053266;28;20044;-68
2022/10/19 01:11:53;;;;;;;4.57;1.70;;;;;;;;;;5046950;28;20037;-68
2022/10/19 01:14:22;;;;;;;4.20;1.70;;;;;;;;;;5051491;28;20106;-68
2022/10/19 01:16:57;;;;;;;6.05;1.60;;;;;;;;;;5053241;28;20515;-68
2022/10/19 01:19:42;;;;;;;3.25;1.40;;;;;;;;;;5043973;28;20442;-67
2022/10/19 01:22:14;;;;;;;5.68;1.50;;;;;;;;;;5053629;28;20044;-67
2022/10/19 01:24:50;;;;;;;7.20;1.65;;;;;;;;;;5053929;28;20037;-67
2022/10/19 01:27:16;;;;;;;1.95;1.73;;;;;;;;;;5048503;28;20556;-67
2022/10/19 01:30:02;;;;;;;4.55;1.80;;;;;;;;;;5048583;28;20032;-67
2022/10/19 01:32:41;;;;;;;3.60;1.60;;;;;;;;;;5052073;28;20080;-68
2022/10/19 01:35:12;;;;;;;3.58;1.35;;;;;;;;;;5053634;28;20063;-68
2022/10/19 01:37:46;;;;;;;8.43;1.70;;;;;;;;;;5051813;28;20040;-67
2022/10/19 01:40:26;;;;;;;3.67;1.40;;;;;;;;;;5036388;28;20075;-67
2022/10/19 01:43:07;;;;;;;5.03;1.60;;;;;;;;;;5050361;28;20509;-67
2022/10/19 01:45:33;;;;;;;;;;;;;;;;;;5053806;28;20501;-68
2022/10/19 01:48:21;;;;;;;3.15;1.75;;;;;;;;;;5051767;28;19923;-67
2022/10/19 01:51:25;;;;;;;6.05;1.83;;;;;;;;;;5046273;28;20037;-67
2022/10/19 01:53:53;;;;;;;4.07;1.60;;;;;;;;;;5043929;28;20037;-67
2022/10/19 01:56:21;;;;;;;4.15;1.45;;;;;;;;;;5041599;28;20041;-67
2022/10/19 01:58:49;;;;;;;4.35;1.83;;;;;;;;;;5037871;28;20045;-67
2022/10/19 02:01:16;;;;;;;2.22;1.40;;;;;;;;;;5050545;28;20045;-67
2022/10/19 02:03:43;;;;;;;5.78;1.90;;;;;;;;;;5042333;28;20040;-67
2022/10/19 02:06:11;;;;;;;3.95;1.73;;;;;;;;;;5050345;28;20045;-68
2022/10/19 02:08:39;;;;;;;4.18;1.60;;;;;;;;;;5052207;28;20048;-68
2022/10/19 02:11:05;;;;;;;3.97;1.42;;;;;;;;;;5044307;28;20049;-68
2022/10/19 02:13:32;;;;;;;2.95;1.80;;;;;;;;;;5051746;28;20061;-67
2022/10/19 02:15:59;;;;;;;4.60;1.88;;;;;;;;;;5048013;28;20115;-67
2022/10/19 02:18:28;;;;;;;5.95;1.98;;;;;;;;;;5049833;28;20041;-67
2022/10/19 02:20:54;;;;;;;5.65;1.60;;;;;;;;;;5048286;28;20072;-68
2022/10/19 02:23:21;;;;;;;6.38;1.80;;;;;;;;;;5034860;28;20042;-67
2022/10/19 02:25:47;;;;;;;6.43;1.80;;;;;;;;;;5044481;28;20037;-67
2022/10/19 02:28:13;;;;;;;3.60;2.00;;;;;;;;;;5043202;28;20510;-67
2022/10/19 02:30:41;;;;;;;6.80;1.83;;;;;;;;;;5050036;28;20041;-67
2022/10/19 02:33:07;;;;;;;4.85;1.95;;;;;;;;;;5039638;28;20037;-68
2022/10/19 02:35:33;;;;;;;7.35;1.95;;;;;;;;;;5044086;28;20056;-68
2022/10/19 02:38:01;;;;;;;3.70;1.83;;;;;;;;;;5051580;28;20033;-68
2022/10/19 02:40:29;;;;;;;6.07;2.10;;;;;;;;;;5043262;28;20086;-68
2022/10/19 02:42:57;;;;;;;4.25;1.95;;;;;;;;;;5044211;28;20033;-68
2022/10/19 02:45:31;;;;;;;3.13;1.73;;;;;;;;;;5051338;28;20448;-67
2022/10/19 02:47:59;;;;;;;2.60;1.70;;;;;;;;;;5048981;28;20040;-67
2022/10/19 02:50:25;;;;;;;6.57;2.50;;;;;;;;;;5050253;28;20044;-68
2022/10/19 02:52:51;;;;;;;2.50;1.80;;;;;;;;;;5046500;28;20037;-67
2022/10/19 02:55:17;;;;;;;7.43;2.30;;;;;;;;;;5047509;28;20033;-67
2022/10/19 02:57:44;;;;;;;8.27;2.30;;;;;;;;;;5051004;28;20512;-68
2022/10/19 03:00:10;;;;;;;6.93;2.38;;;;;;;;;;5043676;28;20037;-68
2022/10/19 03:02:36;;;;;;;4.65;2.28;;;;;;;;;;5039369;28;20029;-67
2022/10/19 03:05:03;;;;;;;3.88;2.03;;;;;;;;;;5044334;28;20041;-67
2022/10/19 03:07:29;;;;;;;7.32;2.22;;;;;;;;;;5049190;28;20146;-68
2022/10/19 03:09:55;;;;;;;4.47;2.47;;;;;;;;;;5047747;28;20510;-67
2022/10/19 03:12:21;;;;;;;5.95;2.42;;;;;;;;;;5046490;28;20138;-68
2022/10/19 03:14:47;;;;;;;6.75;1.98;;;;;;;;;;5045313;28;20137;-68
2022/10/19 03:17:13;;;;;;;6.10;2.00;;;;;;;;;;5049135;28;20387;-68
2022/10/19 03:19:39;;;;;;;6.25;2.40;;;;;;;;;;5049590;28;20029;-68
2022/10/19 03:22:05;;;;;;;5.72;2.03;;;;;;;;;;5048984;28;20124;-68
2022/10/19 03:24:31;;;;;;;5.57;2.33;;;;;;;;;;5041205;28;20119;-67
2022/10/19 03:26:57;;;;;;;4.80;2.20;;;;;;;;;;5050049;28;20402;-68
2022/10/19 03:29:23;;;;;;;6.03;2.42;;;;;;;;;;5050658;28;20040;-68
2022/10/19 03:31:49;;;;;;;5.40;1.98;;;;;;;;;;5040194;28;20037;-67
2022/10/19 03:34:15;;;;;;;5.22;1.90;;;;;;;;;;5042618;28;20048;-68
2022/10/19 03:36:42;;;;;;;8.32;2.15;;;;;;;;;;5047134;28;20565;-67
2022/10/19 03:39:10;;;;;;;4.70;2.17;;;;;;;;;;5043199;28;20155;-67
2022/10/19 03:41:37;;;;;;;6.13;1.90;;;;;;;;;;5050618;28;20043;-68
2022/10/19 03:44:04;;;;;;;6.47;2.10;;;;;;;;;;5049824;28;20503;-68
2022/10/19 03:46:30;;;;;;;4.97;2.28;;;;;;;;;;5051298;28;20037;-68
2022/10/19 03:48:56;;;;;;;6.78;2.17;;;;;;;;;;5047689;28;20087;-67
2022/10/19 03:51:23;;;;;;;6.25;2.63;;;;;;;;;;5040942;28;20072;-67
2022/10/19 03:54:00;;;;;;;6.03;2.75;;;;;;;;;;5051915;28;20044;-67
2022/10/19 03:56:26;;;;;;;5.75;2.53;;;;;;;;;;5049392;28;20091;-68
2022/10/19 03:58:53;;;;;;;3.53;2.17;;;;;;;;;;5054582;28;20040;-67
2022/10/19 04:01:21;;;;;;;4.97;2.47;;;;;;;;;;5050918;28;20044;-67
2022/10/19 04:03:47;;;;;;;6.22;2.70;;;;;;;;;;5045304;28;20041;-67
2022/10/19 04:06:14;;;;;;;5.70;2.40;;;;;;;;;;5046933;28;20602;-67
2022/10/19 04:08:41;;;;;;;7.32;2.20;;;;;;;;;;5046473;28;20409;-67
2022/10/19 04:11:08;;;;;;;5.93;2.13;;;;;;;;;;5053716;28;20041;-67
2022/10/19 04:13:34;;;;;;;6.78;2.60;;;;;;;;;;5053162;28;20076;-67
2022/10/19 04:16:00;;;;;;;6.18;2.22;;;;;;;;;;5046522;28;20034;-68
2022/10/19 04:18:27;;;;;;;5.63;2.28;;;;;;;;;;5046347;28;20041;-68
2022/10/19 04:20:56;;;;;;;6.35;2.40;;;;;;;;;;5051068;28;20043;-68
2022/10/19 04:23:22;;;;;;;6.82;2.47;;;;;;;;;;5052952;28;20127;-67
2022/10/19 04:25:48;;;;;;;5.95;2.92;;;;;;;;;;5052735;28;20044;-67
2022/10/19 04:28:14;;;;;;;5.07;2.55;;;;;;;;;;5042024;28;20084;-68
2022/10/19 04:30:40;;;;;;;4.95;2.45;;;;;;;;;;5041949;28;20091;-67
2022/10/19 04:33:06;;;;;;;5.22;2.15;;;;;;;;;;5044283;28;20037;-67
2022/10/19 04:35:32;;;;;;;7.07;2.63;;;;;;;;;;5040193;28;20483;-67
2022/10/19 04:37:58;;;;;;;6.97;2.60;;;;;;;;;;5042318;28;20095;-67
2022/10/19 04:40:25;;;;;;;3.92;2.42;;;;;;;;;;5052492;28;20453;-67
2022/10/19 04:42:51;;;;;;;8.20;2.60;;;;;;;;;;5054744;28;20036;-67
2022/10/19 04:45:17;;;;;;;4.45;2.15;;;;;;;;;;5054601;28;20045;-67
2022/10/19 04:47:43;;;;;;;4.45;2.33;;;;;;;;;;5053846;28;20052;-67
2022/10/19 04:50:09;;;;;;;6.28;2.17;;;;;;;;;;5043847;28;20044;-68
2022/10/19 04:52:35;;;;;;;3.80;2.03;;;;;;;;;;5049118;28;20056;-67
2022/10/19 04:55:01;;;;;;;5.78;2.30;;;;;;;;;;5047109;28;20111;-67
2022/10/19 04:57:27;;;;;;;6.55;1.92;;;;;;;;;;5044159;28;20459;-67
2022/10/19 04:59:53;;;;;;;4.78;1.85;;;;;;;;;;5050192;28;20072;-67
2022/10/19 05:02:19;;;;;;;5.32;1.98;;;;;;;;;;5054568;28;20047;-67
2022/10/19 05:04:47;;;;;;;3.22;2.00;;;;;;;;;;5053652;28;20116;-67
2022/10/19 05:07:13;;;;;;;4.63;2.13;;;;;;;;;;5045134;28;20041;-67
2022/10/19 05:09:39;;;;;;;5.90;2.20;;;;;;;;;;5047247;28;20033;-67
2022/10/19 05:12:05;;;;;;;4.78;2.13;;;;;;;;;;5053255;28;20044;-67
2022/10/19 05:14:33;;;;;;;8.10;2.50;;;;;;;;;;5053177;28;20043;-67
2022/10/19 05:16:59;;;;;;;6.03;2.10;;;;;;;;;;5053367;28;20399;-67
2022/10/19 05:19:25;;;;;;;4.28;2.55;;;;;;;;;;5052590;28;20036;-67
2022/10/19 05:21:51;;;;;;;5.90;2.58;;;;;;;;;;5052849;28;20120;-67
2022/10/19 05:24:17;;;;;;;5.03;2.22;;;;;;;;;;5054072;28;20067;-67
2022/10/19 05:26:43;;;;;;;4.93;2.28;;;;;;;;;;5052686;28;20041;-67
2022/10/19 05:29:10;;;;;;;8.07;2.20;;;;;;;;;;5047871;28;20083;-67
2022/10/19 05:31:36;;;;;;;6.93;1.98;;;;;;;;;;5047224;28;20121;-67
2022/10/19 05:34:02;;;;;;;6.88;2.28;;;;;;;;;;5046638;28;20168;-68
2022/10/19 05:36:31;;;;;;;7.03;2.40;;;;;;;;;;5046557;28;20490;-68
2022/10/19 05:38:57;;;;;;;7.38;2.40;;;;;;;;;;5043753;28;20056;-67
2022/10/19 05:41:24;;;;;;;6.90;2.38;;;;;;;;;;5052448;28;20119;-67
2022/10/19 05:43:54;;;;;;;6.43;2.38;;;;;;;;;;5052147;28;20573;-67
2022/10/19 05:46:20;;;;;;;9.02;2.30;;;;;;;;;;5052291;28;20080;-67
2022/10/19 05:48:46;;;;;;;7.47;2.50;;;;;;;;;;5051290;28;20383;-67
2022/10/19 05:51:14;;;;;;;4.25;2.00;;;;;;;;;;5041625;28;20041;-67
2022/10/19 05:53:40;;;;;;;6.47;1.90;;;;;;;;;;5053450;28;20044;-67
2022/10/19 05:56:07;;;;;;;5.50;2.58;;;;;;;;;;5053000;28;20037;-67
2022/10/19 05:58:33;;;;;;;8.25;2.08;;;;;;;;;;5049872;28;20075;-68
2022/10/19 06:01:00;;;;;;;8.60;1.95;;;;;;;;;;5051198;28;20512;-67
2022/10/19 06:03:26;;;;;;;4.25;1.90;;;;;;;;;;5051019;28;20045;-68
2022/10/19 06:05:53;;;;;;;4.13;1.92;;;;;;;;;;5047898;28;21384;-67
2022/10/19 06:08:19;;;;;;;6.03;2.05;;;;;;;;;;5061763;28;20088;-67
2022/10/19 06:10:46;;;;;;;6.47;2.25;;;;;;;;;;5052583;28;20069;-67
2022/10/19 06:13:12;;;;;;;8.43;2.00;;;;;;;;;;5043388;28;20041;-67
2022/10/19 06:15:39;;;;;;;7.20;1.90;;;;;;;;;;5040615;28;20049;-67
2022/10/19 06:18:12;;;;;;;9.88;2.42;;;;;;;;;;5045701;28;20055;-67
2022/10/19 06:20:39;;;;;;;9.20;1.90;;;;;;;;;;5047826;28;20513;-67
2022/10/19 06:23:05;;;;;;;10.38;2.00;;;;;;;;;;5051782;28;20049;-67
2022/10/19 06:25:35;;;;;;;12.90;2.25;;;;;;;;;;5051090;28;20048;-67
2022/10/19 06:28:01;;;;;;;5.10;1.70;;;;;;;;;;5044903;28;20166;-67
2022/10/19 06:30:27;;;;;;;6.50;1.70;;;;;;;;;;5049024;28;20037;-67
2022/10/19 06:32:53;;;;;;;4.60;1.60;;;;;;;;;;5033746;28;20033;-67
2022/10/19 06:35:19;;;;;;;6.95;1.80;;;;;;;;;;5036413;28;20376;-67
2022/10/19 06:37:45;;;;;;;9.90;1.90;;;;;;;;;;5044358;28;20075;-67
2022/10/19 06:40:12;;;;;;;12.10;2.13;;;;;;;;;;5047058;28;20124;-67
2022/10/19 06:42:38;;;;;;;10.45;2.00;;;;;;;;;;5048206;28;20030;-67
2022/10/19 06:45:05;;;;;;;6.75;1.70;;;;;;;;;;5050179;28;20076;-67
2022/10/19 06:47:31;;;;;;;7.70;2.40;;;;;;;;;;5042755;28;20386;-67
2022/10/19 06:49:57;;;;;;;7.05;1.95;;;;;;;;;;5050197;28;20040;-67
2022/10/19 06:52:23;;;;;;;7.32;2.05;;;;;;;;;;5045015;28;20130;-67
2022/10/19 06:54:49;;;;;;;10.50;2.33;;;;;;;;;;5045143;28;20510;-67
2022/10/19 06:57:15;;;;;;;7.78;1.60;;;;;;;;;;5047387;28;20045;-67
2022/10/19 06:59:41;;;;;;;9.13;2.28;;;;;;;;;;5048071;28;20446;-67
2022/10/19 07:02:09;;;;;;;9.52;1.90;;;;;;;;;;5048448;28;20093;-67
2022/10/19 07:04:35;;;;;;;11.18;2.00;;;;;;;;;;5050312;28;20132;-67
2022/10/19 07:07:02;;;;;;;7.43;2.00;;;;;;;;;;5047956;28;20306;-67
2022/10/19 07:09:28;;;;;;;9.65;1.88;;;;;;;;;;5043014;28;20044;-67
2022/10/19 07:11:54;;;;;;;11.25;2.10;;;;;;;;;;5035835;28;20306;-67
2022/10/19 07:14:20;;;;;;;10.27;2.25;;;;;;;;;;5042337;28;20185;-68
2022/10/19 07:16:46;;;;;;;8.80;2.28;;;;;;;;;;5049612;28;20036;-67
2022/10/19 07:19:12;;;;;;;9.32;1.92;;;;;;;;;;5036868;28;20045;-67
2022/10/19 07:21:40;;;;;;;7.10;2.00;;;;;;;;;;5044758;28;20102;-67
2022/10/19 07:24:06;;;;;;;8.07;2.03;;;;;;;;;;5050629;28;20499;-67
2022/10/19 07:26:32;;;;;;;11.50;2.20;;;;;;;;;;5042392;28;20405;-67
2022/10/19 07:28:59;;;;;;;5.55;1.70;;;;;;;;;;5046564;28;20048;-67
2022/10/19 07:31:26;;;;;;;11.65;1.88;;;;;;;;;;5034788;28;20049;-67
2022/10/19 07:33:53;;;;;;;11.40;1.83;;;;;;;;;;5040316;28;20668;-68
2022/10/19 07:36:20;;;;;;;10.65;2.45;;;;;;;;;;5049085;28;20135;-67
2022/10/19 07:38:46;;;;;;;10.45;1.80;;;;;;;;;;5042414;28;20033;-67
2022/10/19 07:41:13;;;;;;;12.60;2.20;;;;;;;;;;5047498;28;20625;-67
2022/10/19 07:43:39;;;;;;;8.50;1.70;;;;;;;;;;5042708;28;20379;-67
2022/10/19 07:46:07;;;;;;;8.15;1.90;;;;;;;;;;5046899;28;20068;-68
2022/10/19 07:48:33;;;;;;;9.95;1.60;;;;;;;;;;5038001;28;20037;-67
2022/10/19 07:51:00;;;;;;;7.28;1.95;;;;;;;;;;5045997;28;20048;-67
2022/10/19 07:53:26;;;;;;;11.10;2.38;;;;;;;;;;5042568;28;20033;-67
2022/10/19 07:55:52;;;;;;;6.30;1.42;;;;;;;;;;5041196;28;20033;-68
2022/10/19 07:58:18;;;;;;;10.18;1.70;;;;;;;;;;5041153;28;20399;-68
2022/10/19 08:00:44;;;;;;;11.98;1.83;;;;;;;;;;5050197;28;20044;-68
2022/10/19 08:03:11;;;;;;;10.73;2.13;;;;;;;;;;5048789;28;20047;-68
2022/10/19 08:05:37;;;;;;;10.77;1.83;;;;;;;;;;5049896;28;20045;-67
2022/10/19 08:08:03;;;;;;;8.90;2.03;;;;;;;;;;5046436;28;20047;-67
2022/10/19 08:10:29;;;;;;;6.60;1.45;;;;;;;;;;5038338;28;20128;-68
2022/10/19 08:12:55;;;;;;;10.15;2.00;;;;;;;;;;5042634;28;20041;-67
2022/10/19 08:15:21;;;;;;;10.02;1.88;;;;;;;;;;5046741;28;20037;-67
2022/10/19 08:17:47;;;;;;;9.18;1.40;;;;;;;;;;5050719;28;20029;-67
2022/10/19 08:20:13;;;;;;;8.05;1.65;;;;;;;;;;5050101;28;20041;-70
2022/10/19 08:22:40;;;;;;;10.57;1.95;;;;;;;;;;5043217;28;20037;-69
2022/10/19 08:25:06;;;;;;;12.50;1.90;;;;;;;;;;5048876;28;20040;-70
2022/10/19 08:27:32;;;;;;;10.02;1.20;;;;;;;;;;5041987;28;20029;-66
2022/10/19 08:29:58;;;;;;;8.43;1.33;;;;;;;;;;5038903;28;20036;-66
2022/10/19 08:32:24;;;;;;;10.15;1.58;;;;;;;;;;5049800;28;20459;-67
2022/10/19 08:34:50;;;;;;;10.20;2.22;;;;;;;;;;5051150;28;20086;-70
2022/10/19 08:37:16;;;;;;;11.15;1.50;;;;;;;;;;5051054;28;20029;-68
2022/10/19 08:39:42;;;;;;;6.93;1.40;;;;;;;;;;5047627;28;20041;-68
2022/10/19 08:42:12;;;;;;;11.50;1.55;;;;;;;;;;5044968;28;20041;-68
2022/10/19 08:44:47;;;;;;;10.77;1.90;;;;;;;;;;5045007;28;20076;-69
2022/10/19 08:47:37;;;;;;;7.95;1.40;;;;;;;;;;5043450;28;20099;-69
2022/10/19 08:50:14;;;;;;;10.50;1.33;;;;;;;;;;5054641;28;20052;-69
2022/10/19 08:52:41;;;;;;;9.18;1.50;;;;;;;;;;5052224;28;20098;-69
2022/10/19 08:55:13;;;;;;;9.75;1.75;;;;;;;;;;5052260;28;20037;-69
2022/10/19 08:57:49;;;;;;;9.40;1.90;;;;;;;;;;5053570;28;20064;-68
2022/10/19 09:00:35;;;;;;;11.52;1.70;;;;;;;;;;5051979;28;20037;-68
2022/10/19 09:03:13;;;;;;;8.82;1.60;;;;;;;;;;5042612;28;20041;-68
2022/10/19 09:05:52;;;;;;;11.40;1.73;;;;;;;;;;5047031;28;20044;-69
2022/10/19 09:08:18;;;;;;;10.10;1.40;;;;;;;;;;5050370;28;20459;-69
2022/10/19 09:10:46;;;;;;;6.50;1.80;;;;;;;;;;5049715;28;20526;-69
2022/10/19 09:13:32;;;;;;;14.38;1.88;;;;;;;;;;5045776;28;20045;-69
2022/10/19 09:15:58;;;;;;;4.15;1.15;;;;;;;;;;5033950;28;20483;-70
2022/10/19 09:18:26;;;;;;;9.02;1.67;;;;;;;;;;5044454;28;20517;-69
2022/10/19 09:20:57;;;;;;;7.25;1.33;;;;;;;;;;5046190;28;20044;-69
2022/10/19 09:23:49;;;;;;;13.20;1.55;;;;;;;;;;5041002;28;20033;-69
2022/10/19 09:26:17;;;;;;;4.65;1.15;;;;;;;;;;5033869;28;20049;-69
2022/10/19 09:28:45;;;;;;;5.93;1.05;;;;;;;;;;5044176;28;20072;-70
2022/10/19 09:31:26;;;;;;;10.02;1.92;;;;;;;;;;5045947;28;20064;-70
2022/10/19 09:33:55;;;;;;;8.45;1.67;;;;;;;;;;5042099;28;20030;-70
2022/10/19 09:36:22;;;;;;;10.70;1.60;;;;;;;;;;5050037;28;20564;-70
2022/10/19 09:38:49;;;;;;;6.72;1.50;;;;;;;;;;5053102;28;20415;-71
2022/10/19 09:41:17;;;;;;;8.43;1.27;;;;;;;;;;5052537;28;20079;-71
2022/10/19 09:43:49;;;;;;;8.55;1.20;;;;;;;;;;5053985;28;20072;-70
2022/10/19 09:46:19;;;;;;;7.22;1.30;;;;;;;;;;5052817;28;20094;-71
2022/10/19 09:48:51;;;;;;;11.05;1.70;;;;;;;;;;5053402;28;20503;-71
2022/10/19 09:51:18;;;;;;;6.22;1.50;;;;;;;;;;5033674;28;20037;-71
2022/10/19 09:53:50;;;;;;;5.60;1.10;;;;;;;;;;5033876;28;20077;-71
2022/10/19 09:56:18;;;;;;;6.97;1.55;;;;;;;;;;5043033;28;20472;-71
2022/10/19 09:58:49;;;;;;;10.55;1.45;;;;;;;;;;5050817;28;20486;-71
2022/10/19 10:01:15;;;;;;;;;;;;;;;;;;5053805;28;20044;-71
2022/10/19 10:03:42;;;;;;;9.52;1.88;;;;;;;;;;5052230;28;20290;-71
2022/10/19 10:06:15;;;;;;;7.32;1.38;;;;;;;;;;5042852;28;20088;-71
2022/10/19 10:08:46;;;;;;;8.10;1.55;;;;;;;;;;5044644;28;20041;-71
2022/10/19 10:11:15;;;;;;;6.38;1.63;;;;;;;;;;5047284;28;20041;-71
2022/10/19 10:13:43;;;;;;;6.40;1.80;;;;;;;;;;5051522;28;20486;-70
2022/10/19 10:16:11;;;;;;;28.77;2.85;;;;;;;;;;5051869;28;20044;-71
2022/10/19 10:18:38;;;;;;;26.05;3.35;;;;;;;;;;5044946;28;20447;-71
2022/10/19 10:21:11;;;;;;;23.02;2.70;;;;;;;;;;5049147;28;20041;-71
2022/10/19 10:23:37;;;;;;;18.63;2.13;;;;;;;;;;5046546;28;20041;-71
2022/10/19 10:26:05;;;;;;;5.75;1.55;;;;;;;;;;5048383;28;20041;-70
2022/10/19 10:28:31;;;;;;;8.07;1.23;;;;;;;;;;5039061;28;20033;-71
2022/10/19 10:31:02;;;;;;;5.78;1.60;;;;;;;;;;5048169;28;20124;-71
2022/10/19 10:33:29;;;;;;;8.80;1.42;;;;;;;;;;5052659;28;20064;-70
2022/10/19 10:35:56;;;;;;;5.50;1.38;;;;;;;;;;5051481;28;20486;-70
2022/10/19 10:38:33;;;;;;;7.60;1.48;;;;;;;;;;5049635;28;20033;-71
2022/10/19 10:41:00;;;;;;;8.77;2.05;;;;;;;;;;5036027;28;20069;-70
2022/10/19 10:43:30;;;;;;;10.23;1.52;;;;;;;;;;5042322;28;20094;-70
2022/10/19 10:45:59;;;;;;;4.97;1.35;;;;;;;;;;5052641;28;20045;-70
2022/10/19 10:48:25;;;;;;;4.70;1.00;;;;;;;;;;5051653;28;20037;-70
2022/10/19 10:50:51;;;;;;;3.88;1.33;;;;;;;;;;5049533;28;20124;-69
2022/10/19 10:53:36;;;;;;;6.05;1.30;;;;;;;;;;5046831;28;20061;-69
2022/10/19 10:56:03;;;;;;;8.27;1.45;;;;;;;;;;5050628;28;20040;-69
2022/10/19 10:58:39;;;;;;;5.05;1.25;;;;;;;;;;5044376;28;20041;-69
2022/10/19 11:01:07;;;;;;;7.28;1.60;;;;;;;;;;5051980;28;20048;-69
2022/10/19 11:03:35;;;;;;;9.05;1.73;;;;;;;;;;5046237;28;20495;-69
2022/10/19 11:06:01;;;;;;;8.05;1.10;;;;;;;;;;5052018;28;20071;-69
2022/10/19 11:08:48;;;;;;;5.18;1.40;;;;;;;;;;5040647;28;20045;-69
2022/10/19 11:11:19;;;;;;;6.13;1.50;;;;;;;;;;5049178;28;20076;-70
2022/10/19 11:13:48;;;;;;;5.15;1.20;;;;;;;;;;5040622;28;20041;-71
2022/10/19 11:16:16;;;;;;;5.63;1.25;;;;;;;;;;5045598;28;20128;-71
2022/10/19 11:18:44;;;;;;;10.77;1.90;;;;;;;;;;5049568;28;20055;-71
2022/10/19 11:21:12;;;;;;;11.27;2.00;;;;;;;;;;5038781;28;20051;-71
2022/10/19 11:23:53;;;;;;;8.32;1.52;;;;;;;;;;5046677;28;20037;-71
2022/10/19 11:26:31;;;;;;;11.05;1.85;;;;;;;;;;5045224;28;20071;-71
2022/10/19 11:29:07;;;;;;;7.18;1.30;;;;;;;;;;5043326;28;20646;-71
2022/10/19 11:31:50;;;;;;;6.60;1.20;;;;;;;;;;5046797;28;20033;-71
2022/10/19 11:34:35;;;;;;;5.70;1.35;;;;;;;;;;5039073;28;20046;-71
2022/10/19 11:37:01;;;;;;;5.82;1.17;;;;;;;;;;5042259;28;20483;-71
2022/10/19 11:39:33;;;;;;;6.88;1.45;;;;;;;;;;5049347;28;20036;-71
2022/10/19 11:42:12;;;;;;;9.70;1.98;;;;;;;;;;5046948;28;20051;-71
2022/10/19 11:44:56;;;;;;;12.15;1.98;;;;;;;;;;5042714;28;20494;-71
2022/10/19 11:47:42;;;;;;;9.02;2.00;;;;;;;;;;5042984;28;20064;-71
2022/10/19 11:50:08;;;;;;;5.50;1.58;;;;;;;;;;5045925;28;20057;-71
2022/10/19 11:52:48;;;;;;;8.07;1.48;;;;;;;;;;5041243;28;20184;-71
2022/10/19 11:55:16;;;;;;;8.38;1.95;;;;;;;;;;5040513;28;20037;-71
2022/10/19 11:57:48;;;;;;;6.03;1.80;;;;;;;;;;5038297;28;20037;-71
2022/10/19 12:00:19;;;;;;;7.82;2.17;;;;;;;;;;5044265;28;20037;-71
2022/10/19 12:03:03;;;;;;;4.70;1.58;;;;;;;;;;5050765;28;20047;-71
2022/10/19 12:05:49;;;;;;;10.93;1.95;;;;;;;;;;5041764;28;20045;-71
2022/10/19 12:08:18;;;;;;;6.63;1.80;;;;;;;;;;5048517;28;20040;-71
2022/10/19 12:10:56;;;;;;;6.82;1.92;;;;;;;;;;5044497;28;20104;-70
2022/10/19 12:13:27;;;;;;;7.65;2.08;;;;;;;;;;5049676;28;20514;-70
2022/10/19 12:15:53;;;;;;;4.95;2.00;;;;;;;;;;5047706;28;20491;-71
2022/10/19 12:18:35;;;;;;;9.57;2.25;;;;;;;;;;5052044;28;20043;-71
2022/10/19 12:21:09;;;;;;;5.63;1.88;;;;;;;;;;5046790;28;20064;-70
2022/10/19 12:23:37;;;;;;;7.00;2.03;;;;;;;;;;5045153;28;20183;-70
2022/10/19 12:26:05;;;;;;;8.23;1.88;;;;;;;;;;5046880;28;20499;-71
2022/10/19 12:28:32;;;;;;;7.35;1.88;;;;;;;;;;5049520;28;20094;-70
2022/10/19 12:30:59;;;;;;;5.70;2.10;;;;;;;;;;5046651;28;20086;-70
2022/10/19 12:33:25;;;;;;;7.18;2.85;;;;;;;;;;5044580;28;20095;-70
2022/10/19 12:36:00;;;;;;;8.15;2.33;;;;;;;;;;5034935;28;20029;-71
2022/10/19 12:38:33;;;;;;;5.95;1.98;;;;;;;;;;5047669;28;20033;-70
2022/10/19 12:41:22;;;;;;;10.77;2.55;;;;;;;;;;5049321;28;20045;-70
2022/10/19 12:43:56;;;;;;;8.55;2.60;;;;;;;;;;5042437;28;20037;-70
2022/10/19 12:46:40;;;;;;;7.47;2.50;;;;;;;;;;5046025;28;20045;-71
2022/10/19 12:49:25;;;;;;;4.63;2.17;;;;;;;;;;5047186;28;20048;-71
2022/10/19 12:51:52;;;;;;;7.38;2.28;;;;;;;;;;5040050;28;20041;-71
2022/10/19 12:54:22;;;;;;;13.48;2.60;;;;;;;;;;5051310;28;20102;-70
2022/10/19 12:56:49;;;;;;;7.85;2.25;;;;;;;;;;5051674;28;20094;-69
2022/10/19 12:59:24;;;;;;;11.73;2.42;;;;;;;;;;5044914;28;20037;-70
2022/10/19 13:01:51;;;;;;;9.32;2.50;;;;;;;;;;5048048;28;20033;-70
2022/10/19 13:04:24;;;;;;;6.00;2.05;;;;;;;;;;5044327;28;20099;-72
2022/10/19 13:06:56;;;;;;;9.68;2.40;;;;;;;;;;5044406;28;21800;-71
2022/10/19 13:09:25;;;;;;;6.88;2.33;;;;;;;;;;5042493;28;20489;-67
2022/10/19 13:12:09;;;;;;;8.07;2.25;;;;;;;;;;5044329;28;20044;-67
2022/10/19 13:14:41;;;;;;;7.88;2.75;;;;;;;;;;5035714;28;20033;-67
2022/10/19 13:17:08;;;;;;;7.13;2.20;;;;;;;;;;5034401;28;20041;-67
2022/10/19 13:19:34;;;;;;;7.32;2.42;;;;;;;;;;5044149;28;20037;-67
2022/10/19 13:22:00;;;;;;;7.63;2.33;;;;;;;;;;5042115;28;20071;-68
2022/10/19 13:24:26;;;;;;;7.95;2.47;;;;;;;;;;5041241;28;20052;-67
2022/10/19 13:27:01;;;;;;;6.40;2.70;;;;;;;;;;5045020;28;20447;-67
2022/10/19 13:29:47;;;;;;;6.47;2.67;;;;;;;;;;5043234;28;20575;-68
2022/10/19 13:32:32;;;;;;;8.07;2.65;;;;;;;;;;5036140;28;20052;-68
2022/10/19 13:35:36;;;;;;;6.70;3.20;;;;;;;;;;5041838;28;21119;-68
2022/10/19 13:38:11;;;;;;;7.05;3.63;;;;;;;;;;5017235;28;20276;-68
2022/10/19 13:40:38;;;;;;;6.88;3.33;;;;;;;;;;5001316;28;20148;-68
2022/10/19 13:43:04;;;;;;;9.50;4.20;;;;;;;;;;5031478;28;20049;-69
2022/10/19 13:45:30;;;;;;;6.88;4.07;;;;;;;;;;5042193;28;20483;-69
2022/10/19 13:48:11;;;;;;;8.90;4.15;;;;;;;;;;5039528;28;20548;-69
2022/10/19 13:50:41;;;;;;;12.27;4.35;;;;;;;;;;5045320;28;20474;-69
2022/10/19 13:53:21;;;;;;;9.63;4.22;;;;;;;;;;5045111;28;20042;-70
2022/10/19 13:55:59;;;;;;;5.20;4.10;;;;;;;;;;5041742;28;20491;-68
2022/10/19 13:58:56;;;;;;;7.97;4.30;;;;;;;;;;5043787;28;20283;-68
2022/10/19 14:01:32;;;;;;;9.10;3.72;;;;;;;;;;5051504;28;20045;-68
2022/10/19 14:04:10;;;;;;;8.63;3.80;;;;;;;;;;5041156;28;20404;-68
2022/10/19 14:06:55;;;;;;;7.35;5.13;;;;;;;;;;5045835;28;20135;-68
2022/10/19 14:09:27;;;;;;;7.97;4.88;;;;;;;;;;5043802;28;20041;-68
2022/10/19 14:11:54;;;;;;;8.88;4.78;;;;;;;;;;5043751;28;20041;-64
2022/10/19 14:14:21;;;;;;;8.88;4.97;;;;;;;;;;5053276;28;20398;-65
2022/10/19 14:16:47;;;;;;;7.25;4.90;;;;;;;;;;5048233;28;20108;-64
2022/10/19 14:19:14;;;;;;;8.60;5.63;;;;;;;;;;5046545;28;20513;-64
2022/10/19 14:21:40;;;;;;;8.65;4.72;;;;;;;;;;5050438;28;20084;-64
2022/10/19 14:24:26;;;;;;;7.25;4.68;;;;;;;;;;5052210;28;20091;-64
2022/10/19 14:26:53;;;;;;;8.82;4.90;;;;;;;;;;5047506;28;20098;-65
2022/10/19 14:29:19;;;;;;;5.90;3.45;;;;;;;;;;5047797;28;20064;-65
2022/10/19 14:31:45;;;;;;;9.90;3.13;;;;;;;;;;5044508;28;20175;-64
2022/10/19 14:34:13;;;;;;;5.85;3.53;;;;;;;;;;5035603;28;20120;-64
2022/10/19 14:36:43;;;;;;;8.30;3.45;;;;;;;;;;5041318;28;20036;-64
2022/10/19 14:39:21;;;;;;;5.38;3.45;;;;;;;;;;5044458;28;20117;-64
2022/10/19 14:41:47;;;;;;;8.65;3.25;;;;;;;;;;5051995;28;20075;-64
2022/10/19 14:44:28;;;;;;;4.65;2.83;;;;;;;;;;5052717;28;20056;-65
2022/10/19 14:46:54;;;;;;;;;;;;;;;;;;5048832;28;20094;-64
2022/10/19 14:49:20;;;;;;;7.10;3.00;;;;;;;;;;5041905;28;19924;-64
2022/10/19 14:51:49;;;;;;;7.13;3.03;;;;;;;;;;5049767;28;20179;-65
2022/10/19 14:54:18;;;;;;;7.40;2.05;;;;;;;;;;5052285;28;20415;-64
2022/10/19 14:56:50;;;;;;;5.10;1.80;;;;;;;;;;5050180;28;20076;-64